sensor_id;sensor_type;location;lat;lon;timestamp;temperature;humidity
27314;DHT22;14800;48.174;9.798;2022-08-16T00:00:20;19.30;67.90
27314;DHT22;14800;48.174;9.798;2022-08-16T00:02:46;19.30;68.00
27314;DHT22;14800;48.174;9.798;2022-08-16T00:05:12;19.30;68.00
27314;DHT22;14800;48.174;9.798;2022-08-16T00:07:38;19.30;68.00
27314;DHT22;14800;48.174;9.798;2022-08-16T00:10:06;19.30;68.10
27314;DHT22;14800;48.174;9.798;2022-08-16T00:12:33;19.30;68.10
27314;DHT22;14800;48.174;9.798;2022-08-16T00:15:02;19.30;68.10
27314;DHT22;14800;48.174;9.798;2022-08-16T00:17:29;19.30;68.50
27314;DHT22;14800;48.174;9.798;2022-08-16T00:19:55;19.30;68.50
27314;DHT22;14800;48.174;9.798;2022-08-16T00:22:22;19.30;68.50
27314;DHT22;14800;48.174;9.798;2022-08-16T00:24:48;19.30;68.60
27314;DHT22;14800;48.174;9.798;2022-08-16T00:27:15;19.30;68.50
27314;DHT22;14800;48.174;9.798;2022-08-16T00:29:41;19.40;68.70
27314;DHT22;14800;48.174;9.798;2022-08-16T00:32:07;19.40;68.70
27314;DHT22;14800;48.174;9.798;2022-08-16T00:34:35;19.30;68.50
27314;DHT22;14800;48.174;9.798;2022-08-16T00:37:01;19.30;68.70
27314;DHT22;14800;48.174;9.798;2022-08-16T00:39:26;19.40;68.60
27314;DHT22;14800;48.174;9.798;2022-08-16T00:41:52;19.30;68.60
27314;DHT22;14800;48.174;9.798;2022-08-16T00:44:20;19.30;69.50
27314;DHT22;14800;48.174;9.798;2022-08-16T00:46:56;19.30;69.00
27314;DHT22;14800;48.174;9.798;2022-08-16T00:49:23;19.30;69.50
27314;DHT22;14800;48.174;9.798;2022-08-16T00:51:51;19.20;69.10
27314;DHT22;14800;48.174;9.798;2022-08-16T00:54:17;19.30;69.30
27314;DHT22;14800;48.174;9.798;2022-08-16T00:56:44;19.30;69.20
27314;DHT22;14800;48.174;9.798;2022-08-16T00:59:12;19.20;69.30
27314;DHT22;14800;48.174;9.798;2022-08-16T01:01:39;19.20;69.30
27314;DHT22;14800;48.174;9.798;2022-08-16T01:04:05;19.20;69.30
27314;DHT22;14800;48.174;9.798;2022-08-16T01:06:32;19.20;69.30
27314;DHT22;14800;48.174;9.798;2022-08-16T01:09:00;19.20;69.30
27314;DHT22;14800;48.174;9.798;2022-08-16T01:11:31;19.20;69.50
27314;DHT22;14800;48.174;9.798;2022-08-16T01:14:25;19.20;69.30
27314;DHT22;14800;48.174;9.798;2022-08-16T01:16:53;19.30;69.90
27314;DHT22;14800;48.174;9.798;2022-08-16T01:19:41;19.30;69.30
27314;DHT22;14800;48.174;9.798;2022-08-16T01:25:05;19.30;69.70
27314;DHT22;14800;48.174;9.798;2022-08-16T01:30:21;19.30;69.40
27314;DHT22;14800;48.174;9.798;2022-08-16T01:32:49;19.30;69.70
27314;DHT22;14800;48.174;9.798;2022-08-16T01:36:19;19.20;69.00
27314;DHT22;14800;48.174;9.798;2022-08-16T01:38:26;19.20;69.30
27314;DHT22;14800;48.174;9.798;2022-08-16T01:41:14;19.20;69.30
27314;DHT22;14800;48.174;9.798;2022-08-16T01:43:42;19.20;69.40
27314;DHT22;14800;48.174;9.798;2022-08-16T01:46:30;19.20;69.20
27314;DHT22;14800;48.174;9.798;2022-08-16T01:49:00;19.30;69.90
27314;DHT22;14800;48.174;9.798;2022-08-16T01:51:28;19.20;69.30
27314;DHT22;14800;48.174;9.798;2022-08-16T01:53:54;19.20;69.20
27314;DHT22;14800;48.174;9.798;2022-08-16T01:56:21;19.20;69.20
27314;DHT22;14800;48.174;9.798;2022-08-16T01:58:47;19.20;69.20
27314;DHT22;14800;48.174;9.798;2022-08-16T02:01:13;19.20;69.20
27314;DHT22;14800;48.174;9.798;2022-08-16T02:03:39;19.20;69.20
27314;DHT22;14800;48.174;9.798;2022-08-16T02:06:05;19.20;69.30
27314;DHT22;14800;48.174;9.798;2022-08-16T02:08:32;19.20;69.20
27314;DHT22;14800;48.174;9.798;2022-08-16T02:10:58;19.30;69.30
27314;DHT22;14800;48.174;9.798;2022-08-16T02:13:24;19.20;70.20
27314;DHT22;14800;48.174;9.798;2022-08-16T02:15:50;19.20;69.20
27314;DHT22;14800;48.174;9.798;2022-08-16T02:18:17;19.20;69.20
27314;DHT22;14800;48.174;9.798;2022-08-16T02:20:47;19.20;69.10
27314;DHT22;14800;48.174;9.798;2022-08-16T02:23:14;19.20;69.30
27314;DHT22;14800;48.174;9.798;2022-08-16T02:25:40;19.20;69.00
27314;DHT22;14800;48.174;9.798;2022-08-16T02:28:05;19.20;69.20
27314;DHT22;14800;48.174;9.798;2022-08-16T02:30:32;19.20;69.00
27314;DHT22;14800;48.174;9.798;2022-08-16T02:32:58;19.10;69.00
27314;DHT22;14800;48.174;9.798;2022-08-16T02:35:25;19.10;69.10
27314;DHT22;14800;48.174;9.798;2022-08-16T02:37:52;19.10;69.20
27314;DHT22;14800;48.174;9.798;2022-08-16T02:40:20;19.10;69.30
27314;DHT22;14800;48.174;9.798;2022-08-16T02:42:47;19.10;69.20
27314;DHT22;14800;48.174;9.798;2022-08-16T02:45:13;19.10;69.20
27314;DHT22;14800;48.174;9.798;2022-08-16T02:47:39;19.10;69.20
27314;DHT22;14800;48.174;9.798;2022-08-16T02:50:06;19.00;69.10
27314;DHT22;14800;48.174;9.798;2022-08-16T02:52:32;19.00;69.10
27314;DHT22;14800;48.174;9.798;2022-08-16T02:54:58;19.00;69.20
27314;DHT22;14800;48.174;9.798;2022-08-16T02:57:24;18.90;69.30
27314;DHT22;14800;48.174;9.798;2022-08-16T02:59:50;18.90;69.60
27314;DHT22;14800;48.174;9.798;2022-08-16T03:02:16;18.90;69.80
27314;DHT22;14800;48.174;9.798;2022-08-16T03:04:42;18.90;69.90
27314;DHT22;14800;48.174;9.798;2022-08-16T03:07:08;18.80;69.90
27314;DHT22;14800;48.174;9.798;2022-08-16T03:09:35;18.90;70.10
27314;DHT22;14800;48.174;9.798;2022-08-16T03:12:02;18.80;70.10
27314;DHT22;14800;48.174;9.798;2022-08-16T03:14:28;18.80;70.30
27314;DHT22;14800;48.174;9.798;2022-08-16T03:16:54;18.80;70.40
27314;DHT22;14800;48.174;9.798;2022-08-16T03:19:20;18.80;70.20
27314;DHT22;14800;48.174;9.798;2022-08-16T03:21:46;18.80;70.40
27314;DHT22;14800;48.174;9.798;2022-08-16T03:24:12;18.80;70.30
27314;DHT22;14800;48.174;9.798;2022-08-16T03:26:38;18.70;70.40
27314;DHT22;14800;48.174;9.798;2022-08-16T03:29:04;18.70;70.30
27314;DHT22;14800;48.174;9.798;2022-08-16T03:31:30;18.70;70.20
27314;DHT22;14800;48.174;9.798;2022-08-16T03:33:55;18.70;70.20
27314;DHT22;14800;48.174;9.798;2022-08-16T03:36:21;18.60;70.30
27314;DHT22;14800;48.174;9.798;2022-08-16T03:38:47;18.60;70.40
27314;DHT22;14800;48.174;9.798;2022-08-16T03:41:12;18.50;70.40
27314;DHT22;14800;48.174;9.798;2022-08-16T03:43:39;18.50;70.60
27314;DHT22;14800;48.174;9.798;2022-08-16T03:46:04;18.40;70.60
27314;DHT22;14800;48.174;9.798;2022-08-16T03:48:35;18.40;70.60
27314;DHT22;14800;48.174;9.798;2022-08-16T03:51:03;18.40;70.70
27314;DHT22;14800;48.174;9.798;2022-08-16T03:53:29;18.30;70.50
27314;DHT22;14800;48.174;9.798;2022-08-16T03:55:55;18.30;70.40
27314;DHT22;14800;48.174;9.798;2022-08-16T03:58:21;18.30;70.60
27314;DHT22;14800;48.174;9.798;2022-08-16T04:00:46;18.30;70.90
27314;DHT22;14800;48.174;9.798;2022-08-16T04:03:14;18.20;71.10
27314;DHT22;14800;48.174;9.798;2022-08-16T04:05:43;18.20;71.30
27314;DHT22;14800;48.174;9.798;2022-08-16T04:08:10;18.20;71.40
27314;DHT22;14800;48.174;9.798;2022-08-16T04:10:37;18.20;71.40
27314;DHT22;14800;48.174;9.798;2022-08-16T04:13:03;18.20;71.60
27314;DHT22;14800;48.174;9.798;2022-08-16T04:15:28;18.10;72.00
27314;DHT22;14800;48.174;9.798;2022-08-16T04:17:55;18.10;72.00
27314;DHT22;14800;48.174;9.798;2022-08-16T04:20:22;18.10;72.10
27314;DHT22;14800;48.174;9.798;2022-08-16T04:22:48;18.10;72.00
27314;DHT22;14800;48.174;9.798;2022-08-16T04:25:14;18.10;72.00
27314;DHT22;14800;48.174;9.798;2022-08-16T04:27:40;18.10;72.10
27314;DHT22;14800;48.174;9.798;2022-08-16T04:30:10;18.00;72.30
27314;DHT22;14800;48.174;9.798;2022-08-16T04:32:36;18.00;72.50
27314;DHT22;14800;48.174;9.798;2022-08-16T04:35:06;18.00;72.50
27314;DHT22;14800;48.174;9.798;2022-08-16T04:37:32;18.00;72.70
27314;DHT22;14800;48.174;9.798;2022-08-16T04:39:58;18.00;72.70
27314;DHT22;14800;48.174;9.798;2022-08-16T04:42:23;18.00;72.80
27314;DHT22;14800;48.174;9.798;2022-08-16T04:44:49;18.00;72.70
27314;DHT22;14800;48.174;9.798;2022-08-16T04:47:14;17.90;72.70
27314;DHT22;14800;48.174;9.798;2022-08-16T04:49:40;17.90;72.70
27314;DHT22;14800;48.174;9.798;2022-08-16T04:52:06;17.90;72.70
27314;DHT22;14800;48.174;9.798;2022-08-16T04:54:31;18.00;72.80
27314;DHT22;14800;48.174;9.798;2022-08-16T04:56:57;18.00;72.90
27314;DHT22;14800;48.174;9.798;2022-08-16T04:59:23;17.90;73.00
27314;DHT22;14800;48.174;9.798;2022-08-16T05:01:49;18.00;73.00
27314;DHT22;14800;48.174;9.798;2022-08-16T05:04:23;18.00;73.20
27314;DHT22;14800;48.174;9.798;2022-08-16T05:06:50;18.00;73.10
27314;DHT22;14800;48.174;9.798;2022-08-16T05:09:16;18.10;73.20
27314;DHT22;14800;48.174;9.798;2022-08-16T05:11:43;18.20;73.50
27314;DHT22;14800;48.174;9.798;2022-08-16T05:14:09;18.20;73.30
27314;DHT22;14800;48.174;9.798;2022-08-16T05:16:34;18.30;73.50
27314;DHT22;14800;48.174;9.798;2022-08-16T05:19:00;18.30;73.70
27314;DHT22;14800;48.174;9.798;2022-08-16T05:21:27;18.30;73.70
27314;DHT22;14800;48.174;9.798;2022-08-16T05:23:54;18.30;73.70
27314;DHT22;14800;48.174;9.798;2022-08-16T05:26:20;18.40;73.60
27314;DHT22;14800;48.174;9.798;2022-08-16T05:28:47;18.40;74.40
27314;DHT22;14800;48.174;9.798;2022-08-16T05:31:13;18.50;73.70
27314;DHT22;14800;48.174;9.798;2022-08-16T05:33:41;18.50;73.60
27314;DHT22;14800;48.174;9.798;2022-08-16T05:36:07;18.50;73.70
27314;DHT22;14800;48.174;9.798;2022-08-16T05:38:33;18.50;73.60
27314;DHT22;14800;48.174;9.798;2022-08-16T05:40:59;18.60;73.90
27314;DHT22;14800;48.174;9.798;2022-08-16T05:43:25;18.60;74.00
27314;DHT22;14800;48.174;9.798;2022-08-16T05:45:51;18.70;74.00
27314;DHT22;14800;48.174;9.798;2022-08-16T05:48:17;18.70;73.90
27314;DHT22;14800;48.174;9.798;2022-08-16T05:50:43;18.80;73.90
27314;DHT22;14800;48.174;9.798;2022-08-16T05:53:09;18.80;73.70
27314;DHT22;14800;48.174;9.798;2022-08-16T05:55:34;18.90;73.70
27314;DHT22;14800;48.174;9.798;2022-08-16T05:58:00;18.90;73.70
27314;DHT22;14800;48.174;9.798;2022-08-16T06:00:25;19.00;73.70
27314;DHT22;14800;48.174;9.798;2022-08-16T06:02:52;19.00;73.90
27314;DHT22;14800;48.174;9.798;2022-08-16T06:05:18;19.00;73.90
27314;DHT22;14800;48.174;9.798;2022-08-16T06:07:44;19.00;74.70
27314;DHT22;14800;48.174;9.798;2022-08-16T06:10:10;19.00;74.00
27314;DHT22;14800;48.174;9.798;2022-08-16T06:12:37;19.00;74.10
27314;DHT22;14800;48.174;9.798;2022-08-16T06:15:07;19.00;74.20
27314;DHT22;14800;48.174;9.798;2022-08-16T06:17:34;19.00;74.50
27314;DHT22;14800;48.174;9.798;2022-08-16T06:20:00;19.00;74.50
27314;DHT22;14800;48.174;9.798;2022-08-16T06:22:26;19.00;74.70
27314;DHT22;14800;48.174;9.798;2022-08-16T06:24:51;19.00;74.60
27314;DHT22;14800;48.174;9.798;2022-08-16T06:27:17;19.10;74.70
27314;DHT22;14800;48.174;9.798;2022-08-16T06:29:43;19.10;74.70
27314;DHT22;14800;48.174;9.798;2022-08-16T06:32:09;19.10;74.80
27314;DHT22;14800;48.174;9.798;2022-08-16T06:34:36;19.20;74.90
27314;DHT22;14800;48.174;9.798;2022-08-16T06:37:02;19.20;75.00
27314;DHT22;14800;48.174;9.798;2022-08-16T06:39:28;19.30;74.80
27314;DHT22;14800;48.174;9.798;2022-08-16T06:41:54;19.30;74.60
27314;DHT22;14800;48.174;9.798;2022-08-16T06:44:20;19.40;74.60
27314;DHT22;14800;48.174;9.798;2022-08-16T06:46:45;19.50;74.50
27314;DHT22;14800;48.174;9.798;2022-08-16T06:49:11;19.60;74.30
27314;DHT22;14800;48.174;9.798;2022-08-16T06:51:38;19.60;74.60
27314;DHT22;14800;48.174;9.798;2022-08-16T06:54:05;19.70;74.50
27314;DHT22;14800;48.174;9.798;2022-08-16T06:56:31;19.70;74.30
27314;DHT22;14800;48.174;9.798;2022-08-16T06:58:56;19.80;74.20
27314;DHT22;14800;48.174;9.798;2022-08-16T07:01:22;19.90;74.20
27314;DHT22;14800;48.174;9.798;2022-08-16T07:03:48;19.90;73.80
27314;DHT22;14800;48.174;9.798;2022-08-16T07:06:14;20.00;73.60
27314;DHT22;14800;48.174;9.798;2022-08-16T07:08:40;20.10;73.50
27314;DHT22;14800;48.174;9.798;2022-08-16T07:11:07;20.20;73.30
27314;DHT22;14800;48.174;9.798;2022-08-16T07:13:34;20.20;73.00
27314;DHT22;14800;48.174;9.798;2022-08-16T07:16:00;20.30;72.80
27314;DHT22;14800;48.174;9.798;2022-08-16T07:18:25;20.40;72.60
27314;DHT22;14800;48.174;9.798;2022-08-16T07:20:52;20.50;72.40
27314;DHT22;14800;48.174;9.798;2022-08-16T07:23:19;20.50;72.10
27314;DHT22;14800;48.174;9.798;2022-08-16T07:25:45;20.60;72.00
27314;DHT22;14800;48.174;9.798;2022-08-16T07:28:13;20.70;71.90
27314;DHT22;14800;48.174;9.798;2022-08-16T07:30:41;20.80;71.70
27314;DHT22;14800;48.174;9.798;2022-08-16T07:33:07;20.90;71.60
27314;DHT22;14800;48.174;9.798;2022-08-16T07:35:33;20.90;71.20
27314;DHT22;14800;48.174;9.798;2022-08-16T07:38:00;21.00;71.10
27314;DHT22;14800;48.174;9.798;2022-08-16T07:40:26;21.10;70.80
27314;DHT22;14800;48.174;9.798;2022-08-16T07:42:52;21.20;70.40
27314;DHT22;14800;48.174;9.798;2022-08-16T07:45:18;21.30;69.90
27314;DHT22;14800;48.174;9.798;2022-08-16T07:47:44;21.30;69.60
27314;DHT22;14800;48.174;9.798;2022-08-16T07:50:11;21.50;69.40
27314;DHT22;14800;48.174;9.798;2022-08-16T07:52:38;21.60;69.00
27314;DHT22;14800;48.174;9.798;2022-08-16T07:55:04;21.70;68.40
27314;DHT22;14800;48.174;9.798;2022-08-16T07:57:30;21.80;68.00
27314;DHT22;14800;48.174;9.798;2022-08-16T07:59:56;21.80;67.90
27314;DHT22;14800;48.174;9.798;2022-08-16T08:02:21;21.90;68.00
27314;DHT22;14800;48.174;9.798;2022-08-16T08:04:47;22.10;67.60
27314;DHT22;14800;48.174;9.798;2022-08-16T08:07:13;22.10;67.10
27314;DHT22;14800;48.174;9.798;2022-08-16T08:09:39;22.20;66.90
27314;DHT22;14800;48.174;9.798;2022-08-16T08:12:05;22.30;66.70
27314;DHT22;14800;48.174;9.798;2022-08-16T08:14:31;22.40;66.50
27314;DHT22;14800;48.174;9.798;2022-08-16T08:16:57;22.40;66.60
27314;DHT22;14800;48.174;9.798;2022-08-16T08:19:24;22.50;66.00
27314;DHT22;14800;48.174;9.798;2022-08-16T08:21:50;22.60;65.60
27314;DHT22;14800;48.174;9.798;2022-08-16T08:24:18;22.70;65.20
27314;DHT22;14800;48.174;9.798;2022-08-16T08:26:43;22.80;65.20
27314;DHT22;14800;48.174;9.798;2022-08-16T08:29:09;22.90;64.80
27314;DHT22;14800;48.174;9.798;2022-08-16T08:31:34;23.00;64.20
27314;DHT22;14800;48.174;9.798;2022-08-16T08:34:04;23.10;64.10
27314;DHT22;14800;48.174;9.798;2022-08-16T08:36:32;23.20;63.70
27314;DHT22;14800;48.174;9.798;2022-08-16T08:38:58;23.20;63.30
27314;DHT22;14800;48.174;9.798;2022-08-16T08:41:25;23.30;63.30
27314;DHT22;14800;48.174;9.798;2022-08-16T08:43:54;23.40;63.40
27314;DHT22;14800;48.174;9.798;2022-08-16T08:46:20;23.50;62.60
27314;DHT22;14800;48.174;9.798;2022-08-16T08:48:46;23.60;62.20
27314;DHT22;14800;48.174;9.798;2022-08-16T08:51:12;23.70;62.10
27314;DHT22;14800;48.174;9.798;2022-08-16T08:53:38;23.80;62.00
27314;DHT22;14800;48.174;9.798;2022-08-16T08:56:05;23.90;61.90
27314;DHT22;14800;48.174;9.798;2022-08-16T08:58:32;23.90;61.10
27314;DHT22;14800;48.174;9.798;2022-08-16T09:00:58;24.10;60.50
27314;DHT22;14800;48.174;9.798;2022-08-16T09:03:24;24.10;60.30
27314;DHT22;14800;48.174;9.798;2022-08-16T09:05:50;24.20;60.10
27314;DHT22;14800;48.174;9.798;2022-08-16T09:08:16;24.30;59.30
27314;DHT22;14800;48.174;9.798;2022-08-16T09:10:42;24.30;59.00
27314;DHT22;14800;48.174;9.798;2022-08-16T09:13:08;24.40;58.90
27314;DHT22;14800;48.174;9.798;2022-08-16T09:15:33;24.40;58.70
27314;DHT22;14800;48.174;9.798;2022-08-16T09:18:01;24.50;58.40
27314;DHT22;14800;48.174;9.798;2022-08-16T09:20:28;24.50;58.10
27314;DHT22;14800;48.174;9.798;2022-08-16T09:22:54;24.60;58.70
27314;DHT22;14800;48.174;9.798;2022-08-16T09:25:20;24.70;57.90
27314;DHT22;14800;48.174;9.798;2022-08-16T09:27:45;24.70;57.70
27314;DHT22;14800;48.174;9.798;2022-08-16T09:30:11;24.80;57.60
27314;DHT22;14800;48.174;9.798;2022-08-16T09:32:37;24.80;57.60
27314;DHT22;14800;48.174;9.798;2022-08-16T09:35:03;24.90;57.20
27314;DHT22;14800;48.174;9.798;2022-08-16T09:37:30;24.90;57.30
27314;DHT22;14800;48.174;9.798;2022-08-16T09:39:58;24.90;57.30
27314;DHT22;14800;48.174;9.798;2022-08-16T09:42:24;25.00;57.20
27314;DHT22;14800;48.174;9.798;2022-08-16T09:44:50;25.10;57.10
27314;DHT22;14800;48.174;9.798;2022-08-16T09:47:16;25.20;56.80
27314;DHT22;14800;48.174;9.798;2022-08-16T09:49:42;25.30;55.90
27314;DHT22;14800;48.174;9.798;2022-08-16T09:52:09;25.30;56.00
27314;DHT22;14800;48.174;9.798;2022-08-16T09:54:35;25.40;56.00
27314;DHT22;14800;48.174;9.798;2022-08-16T09:57:01;25.40;55.90
27314;DHT22;14800;48.174;9.798;2022-08-16T09:59:26;25.50;55.50
27314;DHT22;14800;48.174;9.798;2022-08-16T10:01:52;25.50;55.70
27314;DHT22;14800;48.174;9.798;2022-08-16T10:04:19;25.60;55.30
27314;DHT22;14800;48.174;9.798;2022-08-16T10:06:44;25.70;55.20
27314;DHT22;14800;48.174;9.798;2022-08-16T10:09:12;25.70;54.80
27314;DHT22;14800;48.174;9.798;2022-08-16T10:11:39;25.80;54.60
27314;DHT22;14800;48.174;9.798;2022-08-16T10:14:24;25.80;54.90
27314;DHT22;14800;48.174;9.798;2022-08-16T10:16:51;25.90;54.70
27314;DHT22;14800;48.174;9.798;2022-08-16T10:19:17;25.80;54.40
27314;DHT22;14800;48.174;9.798;2022-08-16T10:21:43;25.90;54.20
27314;DHT22;14800;48.174;9.798;2022-08-16T10:24:09;25.90;54.90
27314;DHT22;14800;48.174;9.798;2022-08-16T10:26:35;25.90;54.10
27314;DHT22;14800;48.174;9.798;2022-08-16T10:29:03;26.00;54.30
27314;DHT22;14800;48.174;9.798;2022-08-16T10:31:30;26.00;54.00
27314;DHT22;14800;48.174;9.798;2022-08-16T10:33:55;26.00;53.80
27314;DHT22;14800;48.174;9.798;2022-08-16T10:36:21;26.10;53.70
27314;DHT22;14800;48.174;9.798;2022-08-16T10:38:46;26.10;54.10
27314;DHT22;14800;48.174;9.798;2022-08-16T10:41:12;26.20;53.50
27314;DHT22;14800;48.174;9.798;2022-08-16T10:43:40;26.20;53.40
27314;DHT22;14800;48.174;9.798;2022-08-16T10:46:08;26.20;53.50
27314;DHT22;14800;48.174;9.798;2022-08-16T10:48:36;26.30;53.10
27314;DHT22;14800;48.174;9.798;2022-08-16T10:51:03;26.30;53.50
27314;DHT22;14800;48.174;9.798;2022-08-16T10:53:30;26.30;53.10
27314;DHT22;14800;48.174;9.798;2022-08-16T10:55:56;26.40;52.70
27314;DHT22;14800;48.174;9.798;2022-08-16T10:58:25;26.40;52.90
27314;DHT22;14800;48.174;9.798;2022-08-16T11:00:51;26.50;52.80
27314;DHT22;14800;48.174;9.798;2022-08-16T11:03:18;26.50;52.50
27314;DHT22;14800;48.174;9.798;2022-08-16T11:05:44;26.50;52.30
27314;DHT22;14800;48.174;9.798;2022-08-16T11:08:10;26.70;52.40
27314;DHT22;14800;48.174;9.798;2022-08-16T11:10:41;26.70;52.40
27314;DHT22;14800;48.174;9.798;2022-08-16T11:13:09;26.80;51.20
27314;DHT22;14800;48.174;9.798;2022-08-16T11:15:36;26.90;51.00
27314;DHT22;14800;48.174;9.798;2022-08-16T11:18:03;27.00;50.40
27314;DHT22;14800;48.174;9.798;2022-08-16T11:20:29;27.00;50.30
27314;DHT22;14800;48.174;9.798;2022-08-16T11:22:55;27.00;50.20
27314;DHT22;14800;48.174;9.798;2022-08-16T11:25:24;27.00;50.40
27314;DHT22;14800;48.174;9.798;2022-08-16T11:27:50;27.00;50.00
27314;DHT22;14800;48.174;9.798;2022-08-16T11:30:17;27.10;50.10
27314;DHT22;14800;48.174;9.798;2022-08-16T11:32:43;27.20;49.80
27314;DHT22;14800;48.174;9.798;2022-08-16T11:35:18;27.20;50.20
27314;DHT22;14800;48.174;9.798;2022-08-16T11:37:55;27.30;49.50
27314;DHT22;14800;48.174;9.798;2022-08-16T11:40:23;27.30;49.10
27314;DHT22;14800;48.174;9.798;2022-08-16T11:42:50;27.40;49.10
27314;DHT22;14800;48.174;9.798;2022-08-16T11:45:16;27.50;49.60
27314;DHT22;14800;48.174;9.798;2022-08-16T11:47:43;27.50;49.60
27314;DHT22;14800;48.174;9.798;2022-08-16T11:50:09;27.60;48.80
27314;DHT22;14800;48.174;9.798;2022-08-16T11:52:36;27.60;48.20
27314;DHT22;14800;48.174;9.798;2022-08-16T11:55:05;27.70;47.60
27314;DHT22;14800;48.174;9.798;2022-08-16T11:57:32;27.80;47.50
27314;DHT22;14800;48.174;9.798;2022-08-16T11:59:58;27.80;47.80
27314;DHT22;14800;48.174;9.798;2022-08-16T12:02:25;27.80;47.00
27314;DHT22;14800;48.174;9.798;2022-08-16T12:04:50;27.80;47.30
27314;DHT22;14800;48.174;9.798;2022-08-16T12:07:16;27.80;47.90
27314;DHT22;14800;48.174;9.798;2022-08-16T12:09:42;27.80;47.60
27314;DHT22;14800;48.174;9.798;2022-08-16T12:12:08;27.80;47.50
27314;DHT22;14800;48.174;9.798;2022-08-16T12:14:34;27.90;47.60
27314;DHT22;14800;48.174;9.798;2022-08-16T12:17:00;27.90;47.30
27314;DHT22;14800;48.174;9.798;2022-08-16T12:19:27;27.90;46.90
27314;DHT22;14800;48.174;9.798;2022-08-16T12:21:53;27.90;47.20
27314;DHT22;14800;48.174;9.798;2022-08-16T12:24:19;28.00;46.80
27314;DHT22;14800;48.174;9.798;2022-08-16T12:26:45;28.00;46.50
27314;DHT22;14800;48.174;9.798;2022-08-16T12:29:11;28.00;45.80
27314;DHT22;14800;48.174;9.798;2022-08-16T12:31:36;28.10;46.00
27314;DHT22;14800;48.174;9.798;2022-08-16T12:34:02;28.10;45.90
27314;DHT22;14800;48.174;9.798;2022-08-16T12:36:32;28.20;46.10
27314;DHT22;14800;48.174;9.798;2022-08-16T12:39:00;28.20;45.70
27314;DHT22;14800;48.174;9.798;2022-08-16T12:41:25;28.30;45.80
27314;DHT22;14800;48.174;9.798;2022-08-16T12:43:52;28.40;45.70
27314;DHT22;14800;48.174;9.798;2022-08-16T12:46:18;28.50;45.60
27314;DHT22;14800;48.174;9.798;2022-08-16T12:48:43;28.50;45.80
27314;DHT22;14800;48.174;9.798;2022-08-16T12:51:29;28.50;45.70
27314;DHT22;14800;48.174;9.798;2022-08-16T12:53:58;28.60;46.30
27314;DHT22;14800;48.174;9.798;2022-08-16T12:56:30;28.60;45.50
27314;DHT22;14800;48.174;9.798;2022-08-16T12:58:59;28.70;45.00
27314;DHT22;14800;48.174;9.798;2022-08-16T13:01:28;28.70;44.90
27314;DHT22;14800;48.174;9.798;2022-08-16T13:03:56;28.80;44.70
27314;DHT22;14800;48.174;9.798;2022-08-16T13:06:23;28.80;44.40
27314;DHT22;14800;48.174;9.798;2022-08-16T13:08:49;28.90;44.10
27314;DHT22;14800;48.174;9.798;2022-08-16T13:11:29;28.90;44.50
27314;DHT22;14800;48.174;9.798;2022-08-16T13:13:56;28.90;43.90
27314;DHT22;14800;48.174;9.798;2022-08-16T13:16:23;28.90;44.40
27314;DHT22;14800;48.174;9.798;2022-08-16T13:18:48;28.90;43.80
27314;DHT22;14800;48.174;9.798;2022-08-16T13:21:14;28.90;43.80
27314;DHT22;14800;48.174;9.798;2022-08-16T13:23:40;28.90;44.00
27314;DHT22;14800;48.174;9.798;2022-08-16T13:26:06;29.00;43.20
27314;DHT22;14800;48.174;9.798;2022-08-16T13:28:32;29.00;43.10
27314;DHT22;14800;48.174;9.798;2022-08-16T13:30:58;29.00;43.10
27314;DHT22;14800;48.174;9.798;2022-08-16T13:33:28;29.00;42.70
27314;DHT22;14800;48.174;9.798;2022-08-16T13:35:56;29.00;42.50
27314;DHT22;14800;48.174;9.798;2022-08-16T13:38:22;29.10;42.40
27314;DHT22;14800;48.174;9.798;2022-08-16T13:40:48;29.10;41.90
27314;DHT22;14800;48.174;9.798;2022-08-16T13:43:15;29.10;40.80
27314;DHT22;14800;48.174;9.798;2022-08-16T13:45:41;29.10;42.00
27314;DHT22;14800;48.174;9.798;2022-08-16T13:48:07;29.10;42.00
27314;DHT22;14800;48.174;9.798;2022-08-16T13:50:34;29.10;42.50
27314;DHT22;14800;48.174;9.798;2022-08-16T13:53:00;29.10;42.60
27314;DHT22;14800;48.174;9.798;2022-08-16T13:55:26;29.10;42.40
27314;DHT22;14800;48.174;9.798;2022-08-16T13:57:52;29.20;42.40
27314;DHT22;14800;48.174;9.798;2022-08-16T14:00:18;29.20;42.40
27314;DHT22;14800;48.174;9.798;2022-08-16T14:02:45;29.20;41.80
27314;DHT22;14800;48.174;9.798;2022-08-16T14:05:12;29.20;42.00
27314;DHT22;14800;48.174;9.798;2022-08-16T14:07:38;29.20;42.00
27314;DHT22;14800;48.174;9.798;2022-08-16T14:10:05;29.20;42.10
27314;DHT22;14800;48.174;9.798;2022-08-16T14:12:32;29.20;41.90
27314;DHT22;14800;48.174;9.798;2022-08-16T14:14:59;29.20;42.20
27314;DHT22;14800;48.174;9.798;2022-08-16T14:17:25;29.20;42.40
27314;DHT22;14800;48.174;9.798;2022-08-16T14:19:52;29.20;41.60
27314;DHT22;14800;48.174;9.798;2022-08-16T14:22:21;29.20;41.40
27314;DHT22;14800;48.174;9.798;2022-08-16T14:24:48;29.20;41.10
27314;DHT22;14800;48.174;9.798;2022-08-16T14:27:16;29.10;40.80
27314;DHT22;14800;48.174;9.798;2022-08-16T14:29:43;29.10;40.90
27314;DHT22;14800;48.174;9.798;2022-08-16T14:32:09;29.10;40.70
27314;DHT22;14800;48.174;9.798;2022-08-16T14:34:34;29.10;41.70
27314;DHT22;14800;48.174;9.798;2022-08-16T14:37:00;29.10;41.80
27314;DHT22;14800;48.174;9.798;2022-08-16T14:39:27;29.20;42.20
27314;DHT22;14800;48.174;9.798;2022-08-16T14:41:53;29.20;42.30
27314;DHT22;14800;48.174;9.798;2022-08-16T14:44:19;29.30;42.20
27314;DHT22;14800;48.174;9.798;2022-08-16T14:46:44;29.30;41.90
27314;DHT22;14800;48.174;9.798;2022-08-16T14:49:10;29.40;42.50
27314;DHT22;14800;48.174;9.798;2022-08-16T14:51:35;29.40;41.90
27314;DHT22;14800;48.174;9.798;2022-08-16T14:54:02;29.40;41.50
27314;DHT22;14800;48.174;9.798;2022-08-16T14:56:28;29.40;41.80
27314;DHT22;14800;48.174;9.798;2022-08-16T14:58:54;29.50;41.60
27314;DHT22;14800;48.174;9.798;2022-08-16T15:01:20;29.50;41.30
27314;DHT22;14800;48.174;9.798;2022-08-16T15:03:47;29.60;40.70
27314;DHT22;14800;48.174;9.798;2022-08-16T15:06:12;29.60;40.90
27314;DHT22;14800;48.174;9.798;2022-08-16T15:08:38;29.60;40.90
27314;DHT22;14800;48.174;9.798;2022-08-16T15:11:04;29.60;41.00
27314;DHT22;14800;48.174;9.798;2022-08-16T15:13:30;29.60;40.60
27314;DHT22;14800;48.174;9.798;2022-08-16T15:15:56;29.60;40.30
27314;DHT22;14800;48.174;9.798;2022-08-16T15:18:22;29.60;40.30
27314;DHT22;14800;48.174;9.798;2022-08-16T15:20:47;29.60;41.20
27314;DHT22;14800;48.174;9.798;2022-08-16T15:23:13;29.70;40.40
27314;DHT22;14800;48.174;9.798;2022-08-16T15:25:44;29.70;41.30
27314;DHT22;14800;48.174;9.798;2022-08-16T15:28:12;29.70;40.30
27314;DHT22;14800;48.174;9.798;2022-08-16T15:30:38;29.70;40.30
27314;DHT22;14800;48.174;9.798;2022-08-16T15:33:08;29.70;40.50